Zagreb — 9AA5910 — position and weather

sailwx.info

Track history (hours):
 
Tides and Currents Weather Stations Pressure Air Temp Water Temp Dewpoint Dewpoint Depression Visibility Wind Speed Wind Dir Waves Ship Positions

Zagreb

Last reported at 2016-Jul-29 15:28 UTC. Time now 2016-Jul-29 15:55 UTC.
Position N 59°46' E 024°12'.

Length 229 m; draft 13 m.

Type: Cargo ship. MMSI: 238249000.

Date/timePositionNaut miles runAvg speedWind from/ knotsBaromVisibWave heightAir tempDewpointWater temp
2016-Jul-29 15:28N 59°46' E 024°12'1212.3
2016-Jul-29 14:31N 59°48' E 024°35'5412.2
2016-Jul-29 10:06N 59°60' E 026°19'712.3
2016-Jul-29 09:33N 60°01' E 026°32'2511.6
2016-Jul-29 07:24N 60°05' E 027°22'1112.5
2016-Jul-29 06:31N 60°11' E 027°41'1111.7
2016-Jul-29 05:33N 60°10' E 028°03'1211.7
2016-Jul-29 04:33N 60°05' E 028°25'8 7.6
2016-Jul-29 03:33N 59°60' E 028°36'9 9.0
2016-Jul-29 02:33N 59°52' E 028°28'9 9.3
2016-Jul-29 01:33N 59°43' E 028°25'2 1.3
2016-Jul-29 00:24N 59°41' E 028°25'0 0.0
2016-Jul-28 23:27N 59°41' E 028°25'0 0.0
2016-Jul-28 22:24N 59°41' E 028°25'0 0.0
2016-Jul-28 21:27N 59°41' E 028°25'0 0.0
2016-Jul-28 20:27N 59°41' E 028°25'0 0.0
2016-Jul-28 19:29N 59°41' E 028°25'0 0.0
2016-Jul-28 18:15N 59°41' E 028°25'0 0.0
2016-Jul-28 17:30N 59°41' E 028°25'0 0.0
2016-Jul-28 16:32N 59°41' E 028°25'0 0.0
2016-Jul-28 15:33N 59°41' E 028°25'0 0.0
2016-Jul-28 14:33N 59°41' E 028°25'0 0.0
2016-Jul-28 13:33N 59°41' E 028°25'0 0.0
2016-Jul-28 12:33N 59°41' E 028°25'0 0.0
2016-Jul-28 11:33N 59°41' E 028°25'0 0.0
2016-Jul-28 10:32N 59°41' E 028°25'0 0.0
2016-Jul-28 09:24N 59°41' E 028°25'0 0.0
2016-Jul-28 08:20N 59°41' E 028°25'0 0.0
2016-Jul-28 07:23N 59°41' E 028°25'0 0.0
2016-Jul-28 06:26N 59°41' E 028°25'0 0.0
2016-Jul-28 05:26N 59°41' E 028°25'0 0.0
2016-Jul-28 04:29N 59°41' E 028°25'0 0.0
2016-Jul-28 03:27N 59°41' E 028°25'0 0.0
2016-Jul-28 02:32N 59°41' E 028°25'0 0.0
2016-Jul-28 01:29N 59°41' E 028°25'0 0.0
2016-Jul-28 00:29N 59°41' E 028°25'0 0.0
2016-Jul-27 23:32N 59°41' E 028°25'0 0.0
2016-Jul-27 22:17N 59°41' E 028°25'0 0.0
2016-Jul-27 21:32N 59°41' E 028°25'0 0.0
2016-Jul-27 20:32N 59°41' E 028°25'0 0.0
2016-Jul-27 19:20N 59°41' E 028°25'0 0.0
2016-Jul-27 18:32N 59°41' E 028°25'0 0.0
2016-Jul-27 17:23N 59°41' E 028°25'0 0.0
2016-Jul-27 16:26N 59°41' E 028°25'0 0.0
2016-Jul-27 15:26N 59°41' E 028°25'0 0.0
2016-Jul-27 14:26N 59°41' E 028°25'0 0.0
2016-Jul-27 13:29N 59°41' E 028°25'0 0.0
2016-Jul-27 12:29N 59°41' E 028°25'0 0.0
2016-Jul-27 11:29N 59°41' E 028°25'0 0.0
2016-Jul-27 10:29N 59°41' E 028°25'0 0.0
2016-Jul-27 09:32N 59°41' E 028°25'0 0.0
2016-Jul-27 08:32N 59°41' E 028°25'0 0.0
2016-Jul-27 07:32N 59°41' E 028°25'0 0.0
2016-Jul-27 06:32N 59°41' E 028°25'0 0.0
2016-Jul-27 05:32N 59°41' E 028°25'0 0.0
2016-Jul-27 04:32N 59°41' E 028°25'0 0.1
2016-Jul-27 03:33N 59°41' E 028°25'2 1.7
2016-Jul-27 02:33N 59°43' E 028°24'1010.3
2016-Jul-27 01:33N 59°53' E 028°29'5 5.3
2016-Jul-27 00:33N 59°55' E 028°38'0 0.0
2016-Jul-26 23:33N 59°55' E 028°38'0 0.0
2016-Jul-26 22:33N 59°55' E 028°38'0 0.0
2016-Jul-26 21:33N 59°55' E 028°38'0 0.0
2016-Jul-26 20:33N 59°55' E 028°38'0 0.0
2016-Jul-26 19:33N 59°55' E 028°38'0 0.1
2016-Jul-26 18:33N 59°55' E 028°38'0 0.0
2016-Jul-26 17:33N 59°55' E 028°38'0 0.0
2016-Jul-26 16:33N 59°55' E 028°38'7 6.7
2016-Jul-26 15:33N 60°02' E 028°34'1413.8
2016-Jul-26 14:33N 60°08' E 028°09'1413.9
2016-Jul-26 13:34N 60°09' E 027°42'1414.2
2016-Jul-26 12:33N 60°02' E 027°17'1313.5
2016-Jul-26 11:33N 59°59' E 026°51'1614.1
2016-Jul-26 10:27N 59°57' E 026°20'4114.3
2016-Jul-26 07:33N 59°48' E 024°60'1514.7
2016-Jul-26 06:32N 59°44' E 024°30'1414.1
2016-Jul-26 05:33N 59°40' E 024°04'1614.5
2016-Jul-26 04:28N 59°35' E 023°35'1714.6
2016-Jul-26 03:16N 59°29' E 023°03'22014.0
2016-Jul-25 11:34N 56°30' E 019°00'1713.3
2016-Jul-25 10:16N 56°16' E 018°42'1013.4
2016-Jul-25 09:33N 56°11' E 018°28'1413.4
2016-Jul-25 08:31N 56°04' E 018°06'1313.7
2016-Jul-25 07:33N 55°57' E 017°46'1413.7
2016-Jul-25 06:33N 55°52' E 017°23'6013.5
2016-Jul-25 02:06N 55°38' E 015°39'813.8
2016-Jul-25 01:33N 55°36' E 015°26'1413.8
2016-Jul-25 00:33N 55°30' E 015°04'1413.7
2016-Jul-24 23:34N 55°25' E 014°42'1413.5
2016-Jul-24 22:33N 55°15' E 014°26'1413.8
2016-Jul-24 21:33N 55°04' E 014°11'1313.2
2016-Jul-24 20:34N 54°58' E 013°50'1313.3
2016-Jul-24 19:33N 54°54' E 013°28'1313.3
2016-Jul-24 18:34N 54°49' E 013°07'1313.3
2016-Jul-24 17:34N 54°45' E 012°45'1312.8
2016-Jul-24 16:33N 54°38' E 012°26'1211.9
2016-Jul-24 15:34N 54°29' E 012°15'1212.4
2016-Jul-24 14:33N 54°18' E 012°04'8 7.9
2016-Jul-24 13:31N 54°10' E 012°06'0 0.2
2016-Jul-24 12:19N 54°09' E 012°07'0 0.0
2016-Jul-24 11:31N 54°09' E 012°07'0 0.0
2016-Jul-24 10:25N 54°09' E 012°07'0 0.0
2016-Jul-24 08:31N 54°09' E 012°07'0 0.0
2016-Jul-24 07:31N 54°09' E 012°07'0 0.0
2016-Jul-24 06:31N 54°09' E 012°07'0 0.0
2016-Jul-24 04:25N 54°09' E 012°07'0 0.0
2016-Jul-24 03:28N 54°09' E 012°07'0 0.0
2016-Jul-24 02:31N 54°09' E 012°07'0 0.0
2016-Jul-24 01:31N 54°09' E 012°07'0 0.0
2016-Jul-23 23:28N 54°09' E 012°07'0 0.0
2016-Jul-23 20:22N 54°09' E 012°07'0 0.0
2016-Jul-23 19:28N 54°09' E 012°07'0 0.0
2016-Jul-23 18:31N 54°09' E 012°07'0 0.0
2016-Jul-23 17:19N 54°09' E 012°07'0 0.0
2016-Jul-23 16:28N 54°09' E 012°07'0 0.0
2016-Jul-23 15:28N 54°09' E 012°07'0 0.0
2016-Jul-23 14:19N 54°09' E 012°07'0 0.0
2016-Jul-23 13:13N 54°09' E 012°07'0 0.0
2016-Jul-23 11:25N 54°09' E 012°07'0 0.0
2016-Jul-23 10:25N 54°09' E 012°07'0 0.0
2016-Jul-23 09:28N 54°09' E 012°07'0 0.0
2016-Jul-23 08:31N 54°09' E 012°07'0 0.0
2016-Jul-23 07:28N 54°09' E 012°07'0 0.0
2016-Jul-23 06:28N 54°09' E 012°07'0 0.0
2016-Jul-23 04:28N 54°09' E 012°07'0 0.0
2016-Jul-23 03:31N 54°09' E 012°07'0 0.0
2016-Jul-23 02:28N 54°09' E 012°07'0 0.0
2016-Jul-23 01:28N 54°09' E 012°07'0 0.0
2016-Jul-23 00:22N 54°09' E 012°07'0 0.0
2016-Jul-22 23:28N 54°09' E 012°07'0 0.0
2016-Jul-22 19:28N 54°09' E 012°07'0 0.0
2016-Jul-22 17:31N 54°09' E 012°07'0 0.0
2016-Jul-22 15:28N 54°09' E 012°07'0 0.0
2016-Jul-22 13:25N 54°09' E 012°07'0 0.0
2016-Jul-22 12:25N 54°09' E 012°07'0 0.0
2016-Jul-22 11:10N 54°09' E 012°07'0 0.0
2016-Jul-22 10:28N 54°09' E 012°07'0 0.0
2016-Jul-22 09:31N 54°09' E 012°07'0 0.0
2016-Jul-22 08:31N 54°09' E 012°07'0 0.0
2016-Jul-22 07:31N 54°09' E 012°07'0 0.0
2016-Jul-22 04:31N 54°09' E 012°07'0 0.0
2016-Jul-22 03:28N 54°09' E 012°07'0 0.0
2016-Jul-22 02:22N 54°09' E 012°07'0 0.0
2016-Jul-22 01:31N 54°09' E 012°07'0 0.0
2016-Jul-22 00:31N 54°09' E 012°07'0 0.0
2016-Jul-21 23:31N 54°09' E 012°07'0 0.0
2016-Jul-21 22:31N 54°09' E 012°07'0 0.0
2016-Jul-21 21:31N 54°09' E 012°07'0 0.0
2016-Jul-21 20:10N 54°09' E 012°07'0 0.0
2016-Jul-21 19:22N 54°09' E 012°07'0 0.0
2016-Jul-21 18:28N 54°09' E 012°07'0 0.0
2016-Jul-21 15:28N 54°09' E 012°07'0 0.0
2016-Jul-21 14:25N 54°09' E 012°07'0 0.0
2016-Jul-21 13:04N 54°09' E 012°07'0 0.0
2016-Jul-21 12:31N 54°09' E 012°07'0 0.0
2016-Jul-21 11:10N 54°09' E 012°07'0 0.0
2016-Jul-21 08:31N 54°09' E 012°07'0 0.0
2016-Jul-21 07:31N 54°09' E 012°07'0 0.0
2016-Jul-21 06:31N 54°09' E 012°07'0 0.0
2016-Jul-21 05:31N 54°09' E 012°07'0 0.0
2016-Jul-21 04:28N 54°09' E 012°07'0 0.0
2016-Jul-21 03:31N 54°09' E 012°07'0 0.0
2016-Jul-21 02:31N 54°09' E 012°07'0 0.0
2016-Jul-21 01:25N 54°09' E 012°07'0 0.0
2016-Jul-21 00:31N 54°09' E 012°07'0 0.0
2016-Jul-20 23:28N 54°09' E 012°07'0 0.0
2016-Jul-20 22:31N 54°09' E 012°07'0 0.0
2016-Jul-20 21:31N 54°09' E 012°07'0 0.0
2016-Jul-20 20:31N 54°09' E 012°07'0 0.0
2016-Jul-20 19:31N 54°09' E 012°07'0 0.0
2016-Jul-20 18:31N 54°09' E 012°07'0 0.0
2016-Jul-20 17:28N 54°09' E 012°07'0 0.0
2016-Jul-20 16:25N 54°09' E 012°07'0 0.0
2016-Jul-20 15:25N 54°09' E 012°07'0 0.0
2016-Jul-20 14:28N 54°09' E 012°07'0 0.0
2016-Jul-20 13:28N 54°09' E 012°07'0 0.0
2016-Jul-20 12:31N 54°09' E 012°07'0 0.0
2016-Jul-20 11:31N 54°09' E 012°07'0 0.0
2016-Jul-20 10:31N 54°09' E 012°07'0 0.0
2016-Jul-20 09:25N 54°09' E 012°07'0 0.0
2016-Jul-20 08:31N 54°09' E 012°07'0 0.0
2016-Jul-20 07:31N 54°09' E 012°07'0 0.0
2016-Jul-20 06:34N 54°09' E 012°07'0 0.0
2016-Jul-20 05:28N 54°09' E 012°07'0 0.0
2016-Jul-20 04:33N 54°09' E 012°07'6 5.6
2016-Jul-20 03:33N 54°15' E 012°03'6 5.6
2016-Jul-20 02:33N 54°20' E 012°03'1111.4
2016-Jul-20 01:33N 54°30' E 012°13'1111.0
2016-Jul-20 00:33N 54°39' E 012°24'2311.0
2016-Jul-19 22:27N 54°50' E 012°59'1112.8
2016-Jul-19 21:33N 54°55' E 013°17'1212.4
2016-Jul-19 20:33N 54°59' E 013°38'1212.2
2016-Jul-19 19:33N 55°03' E 013°58'1212.1
2016-Jul-19 18:33N 55°11' E 014°14'1212.3
2016-Jul-19 17:33N 55°20' E 014°27'1211.7
2016-Jul-19 16:33N 55°28' E 014°42'1212.0
2016-Jul-19 15:33N 55°34' E 015°01'  
Track history (hours):
 
Tides and Currents Weather Stations Pressure Air Temp Water Temp Dewpoint Dewpoint Depression Visibility Wind Speed Wind Dir Waves Ship Positions

Zagreb

Last reported at 2016-Jul-29 15:28 UTC. Time now 2016-Jul-29 15:55 UTC.
Position N 59°46' E 024°12'.

Length 229 m; draft 13 m.

Type: Cargo ship. MMSI: 238249000.

Date/timePositionNaut miles runAvg speedWind from/ knotsBaromVisibWave heightAir tempDewpointWater temp
2016-Jul-29 15:28N 59°46' E 024°12'1212.3
2016-Jul-29 14:31N 59°48' E 024°35'5412.2
2016-Jul-29 10:06N 59°60' E 026°19'712.3
2016-Jul-29 09:33N 60°01' E 026°32'2511.6
2016-Jul-29 07:24N 60°05' E 027°22'1112.5
2016-Jul-29 06:31N 60°11' E 027°41'1111.7
2016-Jul-29 05:33N 60°10' E 028°03'1211.7
2016-Jul-29 04:33N 60°05' E 028°25'8 7.6
2016-Jul-29 03:33N 59°60' E 028°36'9 9.0
2016-Jul-29 02:33N 59°52' E 028°28'9 9.3
2016-Jul-29 01:33N 59°43' E 028°25'2 1.3
2016-Jul-29 00:24N 59°41' E 028°25'0 0.0
2016-Jul-28 23:27N 59°41' E 028°25'0 0.0
2016-Jul-28 22:24N 59°41' E 028°25'0 0.0
2016-Jul-28 21:27N 59°41' E 028°25'0 0.0
2016-Jul-28 20:27N 59°41' E 028°25'0 0.0
2016-Jul-28 19:29N 59°41' E 028°25'0 0.0
2016-Jul-28 18:15N 59°41' E 028°25'0 0.0
2016-Jul-28 17:30N 59°41' E 028°25'0 0.0
2016-Jul-28 16:32N 59°41' E 028°25'0 0.0
2016-Jul-28 15:33N 59°41' E 028°25'0 0.0
2016-Jul-28 14:33N 59°41' E 028°25'0 0.0
2016-Jul-28 13:33N 59°41' E 028°25'0 0.0
2016-Jul-28 12:33N 59°41' E 028°25'0 0.0
2016-Jul-28 11:33N 59°41' E 028°25'0 0.0
2016-Jul-28 10:32N 59°41' E 028°25'0 0.0
2016-Jul-28 09:24N 59°41' E 028°25'0 0.0
2016-Jul-28 08:20N 59°41' E 028°25'0 0.0
2016-Jul-28 07:23N 59°41' E 028°25'0 0.0
2016-Jul-28 06:26N 59°41' E 028°25'0 0.0
2016-Jul-28 05:26N 59°41' E 028°25'0 0.0
2016-Jul-28 04:29N 59°41' E 028°25'0 0.0
2016-Jul-28 03:27N 59°41' E 028°25'0 0.0
2016-Jul-28 02:32N 59°41' E 028°25'0 0.0
2016-Jul-28 01:29N 59°41' E 028°25'0 0.0
2016-Jul-28 00:29N 59°41' E 028°25'0 0.0
2016-Jul-27 23:32N 59°41' E 028°25'0 0.0
2016-Jul-27 22:17N 59°41' E 028°25'0 0.0
2016-Jul-27 21:32N 59°41' E 028°25'0 0.0
2016-Jul-27 20:32N 59°41' E 028°25'0 0.0
2016-Jul-27 19:20N 59°41' E 028°25'0 0.0
2016-Jul-27 18:32N 59°41' E 028°25'0 0.0
2016-Jul-27 17:23N 59°41' E 028°25'0 0.0
2016-Jul-27 16:26N 59°41' E 028°25'0 0.0
2016-Jul-27 15:26N 59°41' E 028°25'0 0.0
2016-Jul-27 14:26N 59°41' E 028°25'0 0.0
2016-Jul-27 13:29N 59°41' E 028°25'0 0.0
2016-Jul-27 12:29N 59°41' E 028°25'0 0.0
2016-Jul-27 11:29N 59°41' E 028°25'0 0.0
2016-Jul-27 10:29N 59°41' E 028°25'0 0.0
2016-Jul-27 09:32N 59°41' E 028°25'0 0.0
2016-Jul-27 08:32N 59°41' E 028°25'0 0.0
2016-Jul-27 07:32N 59°41' E 028°25'0 0.0
2016-Jul-27 06:32N 59°41' E 028°25'0 0.0
2016-Jul-27 05:32N 59°41' E 028°25'0 0.0
2016-Jul-27 04:32N 59°41' E 028°25'0 0.1
2016-Jul-27 03:33N 59°41' E 028°25'2 1.7
2016-Jul-27 02:33N 59°43' E 028°24'1010.3
2016-Jul-27 01:33N 59°53' E 028°29'5 5.3
2016-Jul-27 00:33N 59°55' E 028°38'0 0.0
2016-Jul-26 23:33N 59°55' E 028°38'0 0.0
2016-Jul-26 22:33N 59°55' E 028°38'0 0.0
2016-Jul-26 21:33N 59°55' E 028°38'0 0.0
2016-Jul-26 20:33N 59°55' E 028°38'0 0.0
2016-Jul-26 19:33N 59°55' E 028°38'0 0.1
2016-Jul-26 18:33N 59°55' E 028°38'0 0.0
2016-Jul-26 17:33N 59°55' E 028°38'0 0.0
2016-Jul-26 16:33N 59°55' E 028°38'7 6.7
2016-Jul-26 15:33N 60°02' E 028°34'1413.8
2016-Jul-26 14:33N 60°08' E 028°09'1413.9
2016-Jul-26 13:34N 60°09' E 027°42'1414.2
2016-Jul-26 12:33N 60°02' E 027°17'1313.5
2016-Jul-26 11:33N 59°59' E 026°51'1614.1
2016-Jul-26 10:27N 59°57' E 026°20'4114.3
2016-Jul-26 07:33N 59°48' E 024°60'1514.7
2016-Jul-26 06:32N 59°44' E 024°30'1414.1
2016-Jul-26 05:33N 59°40' E 024°04'1614.5
2016-Jul-26 04:28N 59°35' E 023°35'1714.6
2016-Jul-26 03:16N 59°29' E 023°03'22014.0
2016-Jul-25 11:34N 56°30' E 019°00'1713.3
2016-Jul-25 10:16N 56°16' E 018°42'1013.4
2016-Jul-25 09:33N 56°11' E 018°28'1413.4
2016-Jul-25 08:31N 56°04' E 018°06'1313.7
2016-Jul-25 07:33N 55°57' E 017°46'1413.7
2016-Jul-25 06:33N 55°52' E 017°23'6013.5
2016-Jul-25 02:06N 55°38' E 015°39'813.8
2016-Jul-25 01:33N 55°36' E 015°26'1413.8
2016-Jul-25 00:33N 55°30' E 015°04'1413.7
2016-Jul-24 23:34N 55°25' E 014°42'1413.5
2016-Jul-24 22:33N 55°15' E 014°26'1413.8
2016-Jul-24 21:33N 55°04' E 014°11'1313.2
2016-Jul-24 20:34N 54°58' E 013°50'1313.3
2016-Jul-24 19:33N 54°54' E 013°28'1313.3
2016-Jul-24 18:34N 54°49' E 013°07'1313.3
2016-Jul-24 17:34N 54°45' E 012°45'1312.8
2016-Jul-24 16:33N 54°38' E 012°26'1211.9
2016-Jul-24 15:34N 54°29' E 012°15'1212.4
2016-Jul-24 14:33N 54°18' E 012°04'8 7.9
2016-Jul-24 13:31N 54°10' E 012°06'0 0.2
2016-Jul-24 12:19N 54°09' E 012°07'0 0.0
2016-Jul-24 11:31N 54°09' E 012°07'0 0.0
2016-Jul-24 10:25N 54°09' E 012°07'0 0.0
2016-Jul-24 08:31N 54°09' E 012°07'0 0.0
2016-Jul-24 07:31N 54°09' E 012°07'0 0.0
2016-Jul-24 06:31N 54°09' E 012°07'0 0.0
2016-Jul-24 04:25N 54°09' E 012°07'0 0.0
2016-Jul-24 03:28N 54°09' E 012°07'0 0.0
2016-Jul-24 02:31N 54°09' E 012°07'0 0.0
2016-Jul-24 01:31N 54°09' E 012°07'0 0.0
2016-Jul-23 23:28N 54°09' E 012°07'0 0.0
2016-Jul-23 20:22N 54°09' E 012°07'0 0.0
2016-Jul-23 19:28N 54°09' E 012°07'0 0.0
2016-Jul-23 18:31N 54°09' E 012°07'0 0.0
2016-Jul-23 17:19N 54°09' E 012°07'0 0.0
2016-Jul-23 16:28N 54°09' E 012°07'0 0.0
2016-Jul-23 15:28N 54°09' E 012°07'0 0.0
2016-Jul-23 14:19N 54°09' E 012°07'0 0.0
2016-Jul-23 13:13N 54°09' E 012°07'0 0.0
2016-Jul-23 11:25N 54°09' E 012°07'0 0.0
2016-Jul-23 10:25N 54°09' E 012°07'0 0.0
2016-Jul-23 09:28N 54°09' E 012°07'0 0.0
2016-Jul-23 08:31N 54°09' E 012°07'0 0.0
2016-Jul-23 07:28N 54°09' E 012°07'0 0.0
2016-Jul-23 06:28N 54°09' E 012°07'0 0.0
2016-Jul-23 04:28N 54°09' E 012°07'0 0.0
2016-Jul-23 03:31N 54°09' E 012°07'0 0.0
2016-Jul-23 02:28N 54°09' E 012°07'0 0.0
2016-Jul-23 01:28N 54°09' E 012°07'0 0.0
2016-Jul-23 00:22N 54°09' E 012°07'0 0.0
2016-Jul-22 23:28N 54°09' E 012°07'0 0.0
2016-Jul-22 19:28N 54°09' E 012°07'0 0.0
2016-Jul-22 17:31N 54°09' E 012°07'0 0.0
2016-Jul-22 15:28N 54°09' E 012°07'0 0.0
2016-Jul-22 13:25N 54°09' E 012°07'0 0.0
2016-Jul-22 12:25N 54°09' E 012°07'0 0.0
2016-Jul-22 11:10N 54°09' E 012°07'0 0.0
2016-Jul-22 10:28N 54°09' E 012°07'0 0.0
2016-Jul-22 09:31N 54°09' E 012°07'0 0.0
2016-Jul-22 08:31N 54°09' E 012°07'0 0.0
2016-Jul-22 07:31N 54°09' E 012°07'0 0.0
2016-Jul-22 04:31N 54°09' E 012°07'0 0.0
2016-Jul-22 03:28N 54°09' E 012°07'0 0.0
2016-Jul-22 02:22N 54°09' E 012°07'0 0.0
2016-Jul-22 01:31N 54°09' E 012°07'0 0.0
2016-Jul-22 00:31N 54°09' E 012°07'0 0.0
2016-Jul-21 23:31N 54°09' E 012°07'0 0.0
2016-Jul-21 22:31N 54°09' E 012°07'0 0.0
2016-Jul-21 21:31N 54°09' E 012°07'0 0.0
2016-Jul-21 20:10N 54°09' E 012°07'0 0.0
2016-Jul-21 19:22N 54°09' E 012°07'0 0.0
2016-Jul-21 18:28N 54°09' E 012°07'0 0.0
2016-Jul-21 15:28N 54°09' E 012°07'0 0.0
2016-Jul-21 14:25N 54°09' E 012°07'0 0.0
2016-Jul-21 13:04N 54°09' E 012°07'0 0.0
2016-Jul-21 12:31N 54°09' E 012°07'0 0.0
2016-Jul-21 11:10N 54°09' E 012°07'0 0.0
2016-Jul-21 08:31N 54°09' E 012°07'0 0.0
2016-Jul-21 07:31N 54°09' E 012°07'0 0.0
2016-Jul-21 06:31N 54°09' E 012°07'0 0.0
2016-Jul-21 05:31N 54°09' E 012°07'0 0.0
2016-Jul-21 04:28N 54°09' E 012°07'0 0.0
2016-Jul-21 03:31N 54°09' E 012°07'0 0.0
2016-Jul-21 02:31N 54°09' E 012°07'0 0.0
2016-Jul-21 01:25N 54°09' E 012°07'0 0.0
2016-Jul-21 00:31N 54°09' E 012°07'0 0.0
2016-Jul-20 23:28N 54°09' E 012°07'0 0.0
2016-Jul-20 22:31N 54°09' E 012°07'0 0.0
2016-Jul-20 21:31N 54°09' E 012°07'0 0.0
2016-Jul-20 20:31N 54°09' E 012°07'0 0.0
2016-Jul-20 19:31N 54°09' E 012°07'0 0.0
2016-Jul-20 18:31N 54°09' E 012°07'0 0.0
2016-Jul-20 17:28N 54°09' E 012°07'0 0.0
2016-Jul-20 16:25N 54°09' E 012°07'0 0.0
2016-Jul-20 15:25N 54°09' E 012°07'0 0.0
2016-Jul-20 14:28N 54°09' E 012°07'0 0.0
2016-Jul-20 13:28N 54°09' E 012°07'0 0.0
2016-Jul-20 12:31N 54°09' E 012°07'0 0.0
2016-Jul-20 11:31N 54°09' E 012°07'0 0.0
2016-Jul-20 10:31N 54°09' E 012°07'0 0.0
2016-Jul-20 09:25N 54°09' E 012°07'0 0.0
2016-Jul-20 08:31N 54°09' E 012°07'0 0.0
2016-Jul-20 07:31N 54°09' E 012°07'0 0.0
2016-Jul-20 06:34N 54°09' E 012°07'0 0.0
2016-Jul-20 05:28N 54°09' E 012°07'0 0.0
2016-Jul-20 04:33N 54°09' E 012°07'6 5.6
2016-Jul-20 03:33N 54°15' E 012°03'6 5.6
2016-Jul-20 02:33N 54°20' E 012°03'1111.4
2016-Jul-20 01:33N 54°30' E 012°13'1111.0
2016-Jul-20 00:33N 54°39' E 012°24'2311.0
2016-Jul-19 22:27N 54°50' E 012°59'1112.8
2016-Jul-19 21:33N 54°55' E 013°17'1212.4
2016-Jul-19 20:33N 54°59' E 013°38'1212.2
2016-Jul-19 19:33N 55°03' E 013°58'1212.1
2016-Jul-19 18:33N 55°11' E 014°14'1212.3
2016-Jul-19 17:33N 55°20' E 014°27'1211.7
2016-Jul-19 16:33N 55°28' E 014°42'1212.0
2016-Jul-19 15:33N 55°34' E 015°01'  

Dump ship's entire track history